createdAt,value
2018-07-31T00:00:41.770Z,73.02
2018-07-31T00:03:10.942Z,72.90
2018-07-31T00:05:40.171Z,72.95
2018-07-31T00:08:09.142Z,73.10
2018-07-31T00:10:38.455Z,72.12
2018-07-31T00:13:07.642Z,72.24
2018-07-31T00:15:36.823Z,71.79
2018-07-31T00:18:05.942Z,71.87
2018-07-31T00:20:34.844Z,71.99
2018-07-31T00:23:03.822Z,71.53
2018-07-31T00:25:32.799Z,72.38
2018-07-31T00:28:01.984Z,72.65
2018-07-31T00:30:31.341Z,72.77
2018-07-31T00:33:00.827Z,71.63
2018-07-31T00:35:29.790Z,71.88
2018-07-31T00:37:59.068Z,72.73
2018-07-31T00:40:28.363Z,71.25
2018-07-31T00:42:57.173Z,71.40
2018-07-31T00:45:26.170Z,72.38
2018-07-31T00:47:55.490Z,71.46
2018-07-31T00:50:24.674Z,71.59
2018-07-31T00:52:53.970Z,72.19
2018-07-31T00:55:23.271Z,71.59
2018-07-31T00:57:52.370Z,71.25
2018-07-31T01:00:21.485Z,72.40
2018-07-31T01:02:50.361Z,71.79
2018-07-31T01:05:19.774Z,71.91
2018-07-31T01:07:48.954Z,70.52
2018-07-31T01:10:18.246Z,71.40
2018-07-31T01:12:47.305Z,71.25
2018-07-31T01:15:16.647Z,71.61
2018-07-31T01:17:45.806Z,71.46
2018-07-31T01:20:14.847Z,72.05
2018-07-31T01:22:44.051Z,71.12
2018-07-31T01:25:13.191Z,70.85
2018-07-31T01:27:42.526Z,71.04
2018-07-31T01:30:11.473Z,71.12
2018-07-31T01:32:40.333Z,71.18
2018-07-31T01:35:09.534Z,71.03
2018-07-31T01:37:38.493Z,71.05
2018-07-31T01:40:07.655Z,71.92
2018-07-31T01:42:36.761Z,70.80
2018-07-31T01:45:05.790Z,71.03
2018-07-31T01:47:34.984Z,71.69
2018-07-31T01:50:04.246Z,72.04
2018-07-31T01:52:33.486Z,71.17
2018-07-31T01:55:02.641Z,71.71
2018-07-31T01:57:31.462Z,71.07
2018-07-31T02:00:00.644Z,72.18
2018-07-31T02:02:29.702Z,71.49
2018-07-31T02:04:58.942Z,72.05
2018-07-31T02:07:28.084Z,71.90
2018-07-31T02:09:57.102Z,72.25
2018-07-31T02:12:26.105Z,71.77
2018-07-31T02:14:55.235Z,71.69
2018-07-31T02:17:24.425Z,72.06
2018-07-31T02:19:53.519Z,72.28
2018-07-31T02:22:22.610Z,72.38
2018-07-31T02:24:51.748Z,72.37
2018-07-31T02:27:21.004Z,72.79
2018-07-31T02:29:55.173Z,72.71
2018-07-31T02:32:24.519Z,72.52
2018-07-31T02:34:53.661Z,73.04
2018-07-31T02:37:22.582Z,73.47
2018-07-31T02:39:51.744Z,71.52
2018-07-31T02:42:20.875Z,71.32
2018-07-31T02:44:49.992Z,71.73
2018-07-31T02:47:19.302Z,70.87
2018-07-31T02:49:48.882Z,70.88
2018-07-31T02:52:18.170Z,71.34
2018-07-31T02:54:47.029Z,71.03
2018-07-31T02:57:16.153Z,70.84
2018-07-31T02:59:45.335Z,70.42
2018-07-31T03:02:14.223Z,71.17
2018-07-31T03:04:43.340Z,71.96
2018-07-31T03:07:12.454Z,71.01
2018-07-31T03:09:41.754Z,70.82
2018-07-31T03:12:10.938Z,72.10
2018-07-31T03:14:39.907Z,71.71
2018-07-31T03:17:09.139Z,71.75
2018-07-31T03:19:38.265Z,72.12
2018-07-31T03:22:07.369Z,73.49
2018-07-31T03:24:36.539Z,73.59
2018-07-31T03:27:05.662Z,73.64
2018-07-31T03:29:34.612Z,73.05
2018-07-31T03:32:03.727Z,71.68
2018-07-31T03:34:32.955Z,70.84
2018-07-31T03:37:02.107Z,71.34
2018-07-31T03:39:31.314Z,70.58
2018-07-31T03:42:00.497Z,70.36
2018-07-31T03:44:29.786Z,71.17
2018-07-31T03:46:59.132Z,71.34
2018-07-31T03:49:28.462Z,70.58
2018-07-31T03:51:57.329Z,71.35
2018-07-31T03:54:26.373Z,71.22
2018-07-31T03:56:55.566Z,71.04
2018-07-31T03:59:24.746Z,72.61
2018-07-31T04:01:53.970Z,72.09
2018-07-31T04:04:23.191Z,71.60
2018-07-31T04:06:52.194Z,72.98
2018-07-31T04:09:21.318Z,71.92
2018-07-31T04:11:50.643Z,72.49
2018-07-31T04:14:19.875Z,71.79
2018-07-31T04:16:48.990Z,71.63
2018-07-31T04:19:17.891Z,72.55
2018-07-31T04:21:47.155Z,72.29
2018-07-31T04:24:16.622Z,73.25
2018-07-31T04:26:45.489Z,72.93
2018-07-31T04:29:14.618Z,73.74
2018-07-31T04:31:43.880Z,73.48
2018-07-31T04:34:12.885Z,72.11
2018-07-31T04:36:42.086Z,72.04
2018-07-31T04:39:12.622Z,72.57
2018-07-31T04:41:41.614Z,72.56
2018-07-31T04:44:10.754Z,71.39
2018-07-31T04:46:39.703Z,72.16
2018-07-31T04:49:08.601Z,71.81
2018-07-31T04:51:37.863Z,72.13
2018-07-31T04:54:06.987Z,72.56
2018-07-31T04:56:35.944Z,72.50
2018-07-31T04:59:05.127Z,72.32
2018-07-31T05:01:34.414Z,73.03
2018-07-31T05:04:03.366Z,74.29
2018-07-31T05:06:32.454Z,73.58
2018-07-31T05:09:01.706Z,74.47
2018-07-31T05:11:31.031Z,74.48
2018-07-31T05:14:00.149Z,75.77
2018-07-31T05:16:29.333Z,76.97
2018-07-31T05:18:58.178Z,76.89
2018-07-31T05:21:27.275Z,78.08
2018-07-31T05:23:56.426Z,77.28
2018-07-31T05:26:25.602Z,76.37
2018-07-31T05:28:54.757Z,76.71
2018-07-31T05:31:24.087Z,74.96
2018-07-31T05:33:53.526Z,75.02
2018-07-31T05:36:22.420Z,74.55
2018-07-31T05:38:51.254Z,74.08
2018-07-31T05:41:20.482Z,73.83
2018-07-31T05:43:49.559Z,74.20
2018-07-31T05:46:18.787Z,73.01
2018-07-31T05:48:48.040Z,73.55
2018-07-31T05:51:17.278Z,72.88
2018-07-31T05:53:46.111Z,72.02
2018-07-31T05:56:15.368Z,71.34
2018-07-31T05:58:44.394Z,71.77
2018-07-31T06:01:13.358Z,73.10
2018-07-31T06:03:42.447Z,72.62
2018-07-31T06:06:11.588Z,71.14
2018-07-31T06:08:41.924Z,71.00
2018-07-31T06:11:10.946Z,70.02
2018-07-31T06:13:40.405Z,70.92
2018-07-31T06:16:09.501Z,71.49
2018-07-31T06:18:38.698Z,71.06
2018-07-31T06:21:08.519Z,70.85
2018-07-31T06:23:38.047Z,70.72
2018-07-31T06:26:07.458Z,71.79
2018-07-31T06:28:36.350Z,71.77
2018-07-31T06:31:05.627Z,70.20
2018-07-31T06:33:35.147Z,70.14
2018-07-31T06:36:04.208Z,70.45
2018-07-31T06:38:33.290Z,71.39
2018-07-31T06:41:02.583Z,70.38
2018-07-31T06:43:31.806Z,69.60
2018-07-31T06:46:00.992Z,70.74
2018-07-31T06:48:30.182Z,70.40
2018-07-31T06:50:59.020Z,69.53
2018-07-31T06:53:27.820Z,69.47
2018-07-31T06:55:56.944Z,70.54
2018-07-31T06:58:25.855Z,70.95
2018-07-31T07:00:55.087Z,71.24
2018-07-31T07:03:23.944Z,70.39
2018-07-31T07:05:53.126Z,70.62
2018-07-31T07:08:22.308Z,72.55
2018-07-31T07:10:51.607Z,69.67
2018-07-31T07:13:20.907Z,71.23
2018-07-31T07:15:50.040Z,71.53
2018-07-31T07:18:19.146Z,69.98
2018-07-31T07:20:48.277Z,69.88
2018-07-31T07:23:17.214Z,69.89
2018-07-31T07:25:46.286Z,68.24
2018-07-31T07:28:15.518Z,69.43
2018-07-31T07:30:44.694Z,67.70
2018-07-31T07:33:13.686Z,68.00
2018-07-31T07:35:42.493Z,69.79
2018-07-31T07:38:11.337Z,68.91
2018-07-31T07:40:40.546Z,69.44
2018-07-31T07:43:09.752Z,69.69
2018-07-31T07:45:38.933Z,69.76
2018-07-31T07:48:08.178Z,69.40
2018-07-31T07:50:37.464Z,68.50
2018-07-31T07:53:06.669Z,67.31
2018-07-31T07:55:35.647Z,68.04
2018-07-31T07:58:04.973Z,66.73
2018-07-31T08:00:34.067Z,69.00
2018-07-31T08:03:03.321Z,67.02
2018-07-31T08:05:32.130Z,67.52
2018-07-31T08:08:01.313Z,67.01
2018-07-31T08:10:30.530Z,66.49
2018-07-31T08:12:59.700Z,66.20
2018-07-31T08:15:28.509Z,66.73
2018-07-31T08:17:57.387Z,67.02
2018-07-31T08:20:26.565Z,66.67
2018-07-31T08:22:55.912Z,67.10
2018-07-31T08:25:25.928Z,66.59
2018-07-31T08:27:55.263Z,65.86
2018-07-31T08:30:24.322Z,67.09
2018-07-31T08:32:53.468Z,67.07
2018-07-31T08:35:22.759Z,66.73
2018-07-31T08:37:51.605Z,66.09
2018-07-31T08:40:20.798Z,66.75
2018-07-31T08:42:50.055Z,67.99
2018-07-31T08:45:19.250Z,66.51
2018-07-31T08:47:48.454Z,66.01
2018-07-31T08:50:17.464Z,65.23
2018-07-31T08:52:46.780Z,65.91
2018-07-31T08:55:15.797Z,64.08
2018-07-31T08:57:45.089Z,65.32
2018-07-31T09:00:14.335Z,65.27
2018-07-31T09:02:43.588Z,64.78
2018-07-31T09:05:12.751Z,65.50
2018-07-31T09:07:41.602Z,64.79
2018-07-31T09:10:10.908Z,64.47
2018-07-31T09:12:40.054Z,64.73
2018-07-31T09:15:09.498Z,64.79
2018-07-31T09:17:38.865Z,63.49
2018-07-31T09:20:07.994Z,63.40
2018-07-31T09:22:37.220Z,64.40
2018-07-31T09:25:06.687Z,62.94
2018-07-31T09:27:35.887Z,63.17
2018-07-31T09:30:05.407Z,63.24
2018-07-31T09:33:07.459Z,62.53
2018-07-31T09:35:37.319Z,62.70
2018-07-31T09:38:06.719Z,63.00
2018-07-31T09:40:35.735Z,63.34
2018-07-31T09:43:04.870Z,63.33
2018-07-31T09:45:34.039Z,63.64
2018-07-31T09:48:03.383Z,63.03
2018-07-31T09:50:32.616Z,61.93
2018-07-31T09:53:01.873Z,62.02
2018-07-31T09:55:31.083Z,63.04
2018-07-31T09:58:00.215Z,62.96
2018-07-31T10:00:34.220Z,62.04
2018-07-31T10:03:03.328Z,63.65
2018-07-31T10:05:32.452Z,62.12
2018-07-31T10:08:01.471Z,63.15
2018-07-31T10:10:30.717Z,63.36
2018-07-31T10:13:00.073Z,64.17
2018-07-31T10:15:29.183Z,62.88
2018-07-31T10:17:58.567Z,61.59
2018-07-31T10:20:27.363Z,62.32
2018-07-31T10:22:56.286Z,60.83
2018-07-31T10:25:25.564Z,61.03
2018-07-31T10:27:54.808Z,59.63
2018-07-31T10:30:24.272Z,59.99
2018-07-31T10:32:53.443Z,59.41
2018-07-31T10:35:22.558Z,59.71
2018-07-31T10:37:51.554Z,58.72
2018-07-31T10:40:20.486Z,58.24
2018-07-31T10:42:49.670Z,58.20
2018-07-31T10:45:18.892Z,58.46
2018-07-31T10:47:48.021Z,59.62
2018-07-31T10:50:17.268Z,60.23
2018-07-31T10:52:46.435Z,59.99
2018-07-31T10:55:15.558Z,60.35
2018-07-31T10:57:44.770Z,58.44
2018-07-31T11:00:13.942Z,59.27
2018-07-31T11:02:43.067Z,59.68
2018-07-31T11:05:12.237Z,59.64
2018-07-31T11:07:41.245Z,59.85
2018-07-31T11:10:10.560Z,59.59
2018-07-31T11:12:39.567Z,58.35
2018-07-31T11:15:08.562Z,59.37
2018-07-31T11:17:37.758Z,59.10
2018-07-31T11:20:06.914Z,58.12
2018-07-31T11:22:36.267Z,59.92
2018-07-31T11:25:06.093Z,59.68
2018-07-31T11:27:35.166Z,57.80
2018-07-31T11:30:05.868Z,59.39
2018-07-31T11:32:35.067Z,58.03
2018-07-31T11:35:04.430Z,59.09
2018-07-31T11:37:33.239Z,59.33
2018-07-31T11:40:02.096Z,58.59
2018-07-31T11:42:31.180Z,58.75
2018-07-31T11:45:00.319Z,59.79
2018-07-31T11:47:29.706Z,59.26
2018-07-31T11:49:59.019Z,60.10
2018-07-31T11:52:28.299Z,58.77
2018-07-31T11:54:57.371Z,58.85
2018-07-31T11:57:26.634Z,58.08
2018-07-31T11:59:55.906Z,58.03
2018-07-31T12:02:25.206Z,55.33
2018-07-31T12:04:54.487Z,57.57
2018-07-31T12:07:23.608Z,58.38
2018-07-31T12:09:52.588Z,57.08
2018-07-31T12:12:21.541Z,57.02
2018-07-31T12:14:50.384Z,57.53
2018-07-31T12:17:19.585Z,56.71
2018-07-31T12:19:48.834Z,55.36
2018-07-31T12:22:17.953Z,54.19
2018-07-31T12:24:46.809Z,54.32
2018-07-31T12:27:16.098Z,55.80
2018-07-31T12:29:45.291Z,54.20
2018-07-31T12:32:14.586Z,54.42
2018-07-31T12:34:43.690Z,54.52
2018-07-31T12:37:13.085Z,51.90
2018-07-31T12:39:42.155Z,46.67
2018-07-31T12:42:11.439Z,41.68
2018-07-31T12:44:40.446Z,38.65
2018-07-31T12:47:09.608Z,34.21
2018-07-31T12:49:38.511Z,37.90
2018-07-31T12:52:07.968Z,40.96
2018-07-31T12:54:36.991Z,41.41
2018-07-31T12:57:06.261Z,40.06
2018-07-31T12:59:35.348Z,40.23
2018-07-31T13:02:04.494Z,40.21
2018-07-31T13:04:33.686Z,42.58
2018-07-31T13:07:02.740Z,42.06
2018-07-31T13:09:31.819Z,43.48
2018-07-31T13:12:00.790Z,44.77
2018-07-31T13:14:29.886Z,44.46
2018-07-31T13:16:58.645Z,43.54
2018-07-31T13:19:27.841Z,42.56
2018-07-31T13:21:57.380Z,40.50
2018-07-31T13:24:26.642Z,39.36
2018-07-31T13:26:55.950Z,37.60
2018-07-31T13:29:25.248Z,36.22
2018-07-31T13:31:54.502Z,34.88
2018-07-31T13:34:23.409Z,32.62
2018-07-31T13:36:52.212Z,32.90
2018-07-31T13:39:21.299Z,33.10
2018-07-31T13:41:50.597Z,32.55
2018-07-31T13:44:19.855Z,32.49
2018-07-31T13:46:48.971Z,32.73
2018-07-31T13:49:18.196Z,33.24
2018-07-31T13:51:47.210Z,33.82
2018-07-31T13:54:16.495Z,33.73
2018-07-31T13:56:45.735Z,33.01
2018-07-31T13:59:15.005Z,32.94
2018-07-31T14:01:43.958Z,32.82
2018-07-31T14:04:12.906Z,33.23
2018-07-31T14:06:42.004Z,34.45
2018-07-31T14:09:11.786Z,35.35
2018-07-31T14:11:41.064Z,37.22
2018-07-31T14:14:10.274Z,39.04
2018-07-31T14:16:39.358Z,40.50
2018-07-31T14:19:08.282Z,41.74
2018-07-31T14:21:37.299Z,42.00
2018-07-31T14:24:06.539Z,42.57
2018-07-31T14:26:35.767Z,43.42
2018-07-31T14:29:05.034Z,44.53
2018-07-31T14:31:34.218Z,45.15
2018-07-31T14:34:03.060Z,45.13
2018-07-31T14:36:32.327Z,45.43
2018-07-31T14:39:01.649Z,45.42
2018-07-31T14:41:30.799Z,46.97
2018-07-31T14:43:59.768Z,47.31
2018-07-31T14:46:28.851Z,47.45
2018-07-31T14:48:57.630Z,48.30
2018-07-31T14:51:26.509Z,48.34
2018-07-31T14:53:55.747Z,49.75
2018-07-31T14:56:24.983Z,49.27
2018-07-31T14:58:54.101Z,49.86
2018-07-31T15:01:22.863Z,50.07
2018-07-31T15:03:51.749Z,50.20
2018-07-31T15:06:20.957Z,50.45
2018-07-31T15:08:49.903Z,51.39
2018-07-31T15:11:19.170Z,51.86
2018-07-31T15:13:48.104Z,52.77
2018-07-31T15:16:17.218Z,53.31
2018-07-31T15:18:46.507Z,53.16
2018-07-31T15:21:15.504Z,53.52
2018-07-31T15:23:44.710Z,53.28
2018-07-31T15:26:13.803Z,53.21
2018-07-31T15:28:42.860Z,53.07
2018-07-31T15:31:12.035Z,53.73
2018-07-31T15:33:41.189Z,54.04
2018-07-31T15:36:10.426Z,53.49
2018-07-31T15:38:39.579Z,54.10
2018-07-31T15:41:08.923Z,54.87
2018-07-31T15:43:37.614Z,54.87
2018-07-31T15:46:06.920Z,55.15
2018-07-31T15:48:35.746Z,56.01
2018-07-31T15:51:04.670Z,57.17
2018-07-31T15:53:34.000Z,57.11
2018-07-31T15:56:03.246Z,56.65
2018-07-31T15:58:32.094Z,57.19
2018-07-31T16:01:01.356Z,57.93
2018-07-31T16:03:30.221Z,57.32
2018-07-31T16:05:59.381Z,57.76
2018-07-31T16:08:28.412Z,58.84
2018-07-31T16:10:57.457Z,58.25
2018-07-31T16:13:26.338Z,58.51
2018-07-31T16:15:55.452Z,58.49
2018-07-31T16:18:24.730Z,58.70
2018-07-31T16:20:53.960Z,58.70
2018-07-31T16:23:23.128Z,58.28
2018-07-31T16:25:52.306Z,59.00
2018-07-31T16:28:21.363Z,58.86
2018-07-31T16:30:50.711Z,58.27
2018-07-31T16:33:19.574Z,59.06
2018-07-31T16:35:48.655Z,58.64
2018-07-31T16:38:17.670Z,59.92
2018-07-31T16:40:46.927Z,60.77
2018-07-31T16:43:16.170Z,59.93
2018-07-31T16:45:45.426Z,59.93
2018-07-31T16:48:14.570Z,59.60
2018-07-31T16:50:43.570Z,60.88
2018-07-31T16:53:12.368Z,59.93
2018-07-31T16:55:41.236Z,59.70
2018-07-31T16:58:10.545Z,61.23
2018-07-31T17:00:39.638Z,62.42
2018-07-31T17:03:08.522Z,62.42
2018-07-31T17:05:37.614Z,63.58
2018-07-31T17:08:06.662Z,64.53
2018-07-31T17:10:35.858Z,64.40
2018-07-31T17:13:04.771Z,65.65
2018-07-31T17:15:34.032Z,66.01
2018-07-31T17:18:02.875Z,66.77
2018-07-31T17:20:31.661Z,66.16
2018-07-31T17:23:00.868Z,65.15
2018-07-31T17:25:30.029Z,64.14
2018-07-31T17:27:59.031Z,65.24
2018-07-31T17:30:27.821Z,65.68
2018-07-31T17:32:57.037Z,66.02
2018-07-31T17:35:26.402Z,67.14
2018-07-31T17:37:55.387Z,66.46
2018-07-31T17:40:24.574Z,66.44
2018-07-31T17:42:53.722Z,65.85
2018-07-31T17:45:22.810Z,67.16
2018-07-31T17:47:51.677Z,67.67
2018-07-31T17:50:20.851Z,68.42
2018-07-31T17:52:49.996Z,68.00
2018-07-31T17:55:19.178Z,66.97
2018-07-31T17:57:48.359Z,66.33
2018-07-31T18:00:17.738Z,66.37
2018-07-31T18:02:46.700Z,66.19
2018-07-31T18:05:15.791Z,66.10
2018-07-31T18:07:45.072Z,65.32
2018-07-31T18:10:14.219Z,65.45
2018-07-31T18:12:43.587Z,66.25
2018-07-31T18:15:12.684Z,66.13
2018-07-31T18:17:41.858Z,66.46
2018-07-31T18:20:11.111Z,65.90
2018-07-31T18:22:40.258Z,66.92
2018-07-31T18:25:09.355Z,66.39
2018-07-31T18:27:38.606Z,66.09
2018-07-31T18:30:07.992Z,65.77
2018-07-31T18:32:37.207Z,66.57
2018-07-31T18:35:06.290Z,65.66
2018-07-31T18:37:35.436Z,65.92
2018-07-31T18:40:04.548Z,66.14
2018-07-31T18:42:33.678Z,65.78
2018-07-31T18:45:02.819Z,66.18
2018-07-31T18:47:31.879Z,66.47
2018-07-31T18:50:01.195Z,66.71
2018-07-31T18:52:30.416Z,66.29
2018-07-31T18:54:59.584Z,66.31
2018-07-31T18:57:28.774Z,66.11
2018-07-31T18:59:57.587Z,65.71
2018-07-31T19:02:26.738Z,65.68
2018-07-31T19:04:55.941Z,66.56
2018-07-31T19:07:25.224Z,65.96
2018-07-31T19:09:54.617Z,65.50
2018-07-31T19:12:23.430Z,65.56
2018-07-31T19:14:53.692Z,65.74
2018-07-31T19:17:23.068Z,66.75
2018-07-31T19:19:52.338Z,65.87
2018-07-31T19:22:21.641Z,66.28
2018-07-31T19:24:50.972Z,67.13
2018-07-31T19:27:20.216Z,67.39
2018-07-31T19:29:49.542Z,66.86
2018-07-31T19:32:18.716Z,66.11
2018-07-31T19:34:48.127Z,67.00
2018-07-31T19:37:17.303Z,67.72
2018-07-31T19:39:46.314Z,66.92
2018-07-31T19:42:15.788Z,67.73
2018-07-31T19:44:45.912Z,67.90
2018-07-31T19:47:14.892Z,67.81
2018-07-31T19:49:44.278Z,67.19
2018-07-31T19:52:14.010Z,67.98
2018-07-31T19:54:43.230Z,68.06
2018-07-31T19:57:12.202Z,66.68
2018-07-31T19:59:41.489Z,67.25
2018-07-31T20:02:10.457Z,66.92
2018-07-31T20:04:40.493Z,68.25
2018-07-31T20:07:09.639Z,67.62
2018-07-31T20:09:38.931Z,67.34
2018-07-31T20:12:08.378Z,67.77
2018-07-31T20:14:37.745Z,67.06
2018-07-31T20:17:06.896Z,67.75
2018-07-31T20:19:35.793Z,68.18
2018-07-31T20:22:05.110Z,67.18
2018-07-31T20:24:34.296Z,67.82
2018-07-31T20:27:03.525Z,67.79
2018-07-31T20:29:32.802Z,69.32
2018-07-31T20:32:02.036Z,68.66
2018-07-31T20:34:30.785Z,70.19
2018-07-31T20:36:59.959Z,70.56
2018-07-31T20:39:29.079Z,71.09
2018-07-31T20:41:58.144Z,71.20
2018-07-31T20:44:27.275Z,71.90
2018-07-31T20:46:56.181Z,71.74
2018-07-31T20:49:25.510Z,71.88
2018-07-31T20:51:54.678Z,71.30
2018-07-31T20:54:23.496Z,71.93
2018-07-31T20:56:52.786Z,72.04
2018-07-31T20:59:21.906Z,72.36
2018-07-31T21:01:51.123Z,72.87
2018-07-31T21:04:20.336Z,73.42
2018-07-31T21:06:49.658Z,73.19
2018-07-31T21:09:20.571Z,73.23
2018-07-31T21:11:50.633Z,73.33
2018-07-31T21:14:19.670Z,73.63
2018-07-31T21:16:48.614Z,72.45
2018-07-31T21:19:17.517Z,72.07
2018-07-31T21:21:46.787Z,71.86
2018-07-31T21:24:16.048Z,72.56
2018-07-31T21:26:45.242Z,73.45
2018-07-31T21:29:14.473Z,73.28
2018-07-31T21:31:43.523Z,72.89
2018-07-31T21:34:12.630Z,72.16
2018-07-31T21:36:41.814Z,72.43
2018-07-31T21:39:12.415Z,71.94
2018-07-31T21:41:41.939Z,73.41
2018-07-31T21:44:11.617Z,73.27
2018-07-31T21:46:40.793Z,74.09
2018-07-31T21:49:10.234Z,74.39
2018-07-31T21:51:39.526Z,74.87
2018-07-31T21:54:08.454Z,74.62
2018-07-31T21:56:37.646Z,74.92
2018-07-31T21:59:06.727Z,75.36
2018-07-31T22:01:35.998Z,75.66
2018-07-31T22:04:05.202Z,76.59
2018-07-31T22:06:34.398Z,76.65
2018-07-31T22:09:03.747Z,75.89
2018-07-31T22:11:33.103Z,75.77
2018-07-31T22:14:02.004Z,75.21
2018-07-31T22:16:31.011Z,75.85
2018-07-31T22:19:00.269Z,76.84
2018-07-31T22:21:29.374Z,76.57
2018-07-31T22:23:58.507Z,77.51
2018-07-31T22:26:27.546Z,77.26
2018-07-31T22:28:56.719Z,77.04
2018-07-31T22:31:25.601Z,77.41
2018-07-31T22:33:54.709Z,77.67
2018-07-31T22:36:23.838Z,77.42
2018-07-31T22:38:53.044Z,76.99
2018-07-31T22:41:22.318Z,78.27
2018-07-31T22:43:51.435Z,76.65
2018-07-31T22:46:20.519Z,77.93
2018-07-31T22:48:49.523Z,77.97
2018-07-31T22:51:18.520Z,76.46
2018-07-31T22:53:47.690Z,77.08
2018-07-31T22:56:16.934Z,76.44
2018-07-31T22:58:46.209Z,76.72
2018-07-31T23:01:15.171Z,76.82
2018-07-31T23:03:44.377Z,74.13
2018-07-31T23:06:13.267Z,73.81
2018-07-31T23:08:42.155Z,73.11
2018-07-31T23:11:11.305Z,71.19
2018-07-31T23:13:40.550Z,71.55
2018-07-31T23:16:09.794Z,70.24
2018-07-31T23:18:39.130Z,70.33
2018-07-31T23:21:08.534Z,70.98
2018-07-31T23:23:37.558Z,71.52
2018-07-31T23:26:06.844Z,71.43
2018-07-31T23:28:35.795Z,71.82
2018-07-31T23:31:04.911Z,72.12
2018-07-31T23:33:34.192Z,71.82
2018-07-31T23:36:03.370Z,72.60
2018-07-31T23:38:32.578Z,71.69
2018-07-31T23:41:01.592Z,70.38
2018-07-31T23:43:30.581Z,70.35
2018-07-31T23:45:59.702Z,70.47
2018-07-31T23:48:28.687Z,71.66
2018-07-31T23:50:57.786Z,72.90
2018-07-31T23:53:26.860Z,73.18
2018-07-31T23:55:55.968Z,74.36
2018-07-31T23:58:25.209Z,74.17
